Time,TemperatureF,DewpointF,PressureIn,WindDirection,WindDirectionDegrees,WindSpeedMPH,WindSpeedGustMPH,Humidity,HourlyPrecipIn,Conditions,Clouds,dailyrainin,SoftwareType,DateUTC
2013-04-17 00:00:00,63.1,54.7,30.13,West,277,8.0,13.0,74,0.00,,,0.00,VWS V14.01,2013-04-17 04:00:00,
2013-04-17 00:05:00,62.9,54.9,30.13,WSW,248,4.0,10.0,75,0.00,,,0.00,VWS V14.01,2013-04-17 04:05:00,
2013-04-17 00:10:00,62.9,54.9,30.13,WSW,258,7.0,10.0,75,0.00,,,0.00,VWS V14.01,2013-04-17 04:10:00,
2013-04-17 00:15:00,62.9,54.9,30.13,West,263,4.0,10.0,75,0.00,,,0.00,VWS V14.01,2013-04-17 04:15:00,
2013-04-17 00:20:00,62.8,54.8,30.13,SW,236,10.0,10.0,75,0.00,,,0.00,VWS V14.01,2013-04-17 04:20:00,
2013-04-17 00:25:00,62.8,54.8,30.13,SW,236,4.0,11.0,75,0.00,,,0.00,VWS V14.01,2013-04-17 04:25:00,
2013-04-17 00:30:00,62.6,54.9,30.12,SW,230,7.0,14.0,76,0.00,,,0.00,VWS V14.01,2013-04-17 04:30:00,
2013-04-17 00:35:00,62.6,54.9,30.12,SW,229,7.0,8.0,76,0.00,,,0.00,VWS V14.01,2013-04-17 04:35:00,
2013-04-17 00:40:00,62.5,54.8,30.12,SW,234,5.0,10.0,76,0.00,,,0.00,VWS V14.01,2013-04-17 04:40:00,
2013-04-17 00:45:00,62.5,56.2,30.13,WNW,284,5.0,12.0,80,0.00,,,0.00,VWS V14.01,2013-04-17 04:45:00,
2013-04-17 00:50:00,62.3,55.0,30.13,WNW,290,4.0,7.0,77,0.00,,,0.00,VWS V14.01,2013-04-17 04:50:00,
2013-04-17 00:55:00,62.3,55.0,30.13,WSW,252,9.0,9.0,77,0.00,,,0.00,VWS V14.01,2013-04-17 04:55:00,
2013-04-17 01:00:00,62.2,54.9,30.13,SW,234,13.0,13.0,77,0.00,,,0.00,VWS V14.01,2013-04-17 05:00:00,
2013-04-17 01:05:00,62.2,54.9,30.13,SW,223,5.0,8.0,77,0.00,,,0.00,VWS V14.01,2013-04-17 05:05:00,
2013-04-17 01:10:00,62.2,55.3,30.13,WNW,284,6.0,9.0,78,0.00,,,0.00,VWS V14.01,2013-04-17 05:10:00,
2013-04-17 01:15:00,62.2,55.3,30.13,WSW,258,5.0,11.0,78,0.00,,,0.00,VWS V14.01,2013-04-17 05:15:00,
2013-04-17 01:20:00,62.0,55.1,30.13,WSW,250,3.0,7.0,78,0.00,,,0.00,VWS V14.01,2013-04-17 05:20:00,
2013-04-17 01:25:00,62.0,55.1,30.13,WSW,248,0.0,7.0,78,0.00,,,0.00,VWS V14.01,2013-04-17 05:25:00,
2013-04-17 01:30:00,62.0,55.1,30.13,West,269,0.0,7.0,78,0.00,,,0.00,VWS V14.01,2013-04-17 05:30:00,
2013-04-17 01:35:00,62.0,55.1,30.13,SW,236,0.0,5.0,78,0.00,,,0.00,VWS V14.01,2013-04-17 05:35:00,
2013-04-17 01:40:00,61.8,54.9,30.13,SW,236,0.0,5.0,78,0.00,,,0.00,VWS V14.01,2013-04-17 05:40:00,
2013-04-17 01:45:00,61.8,54.9,30.13,SW,236,0.0,5.0,78,0.00,,,0.00,VWS V14.01,2013-04-17 05:45:00,
2013-04-17 01:50:00,61.8,55.2,30.13,SW,236,0.0,0.0,79,0.00,,,0.00,VWS V14.01,2013-04-17 05:50:00,
2013-04-17 01:55:00,61.7,55.1,30.13,SW,236,0.0,1.0,79,0.00,,,0.00,VWS V14.01,2013-04-17 05:55:00,
2013-04-17 02:00:00,61.7,55.1,30.13,SW,236,0.0,5.0,79,0.00,,,0.00,VWS V14.01,2013-04-17 06:00:00,
2013-04-17 02:05:00,61.7,55.1,30.13,SW,236,0.0,0.0,79,0.00,,,0.00,VWS V14.01,2013-04-17 06:05:00,
2013-04-17 02:10:00,61.7,55.1,30.13,SW,236,0.0,0.0,79,0.00,,,0.00,VWS V14.01,2013-04-17 06:10:00,
2013-04-17 02:15:00,61.7,55.1,30.13,West,269,1.0,5.0,79,0.00,,,0.00,VWS V14.01,2013-04-17 06:15:00,
2013-04-17 02:20:00,61.5,55.3,30.13,West,269,0.0,0.0,80,0.00,,,0.00,VWS V14.01,2013-04-17 06:20:00,
2013-04-17 02:25:00,61.5,55.3,30.13,West,269,0.0,0.0,80,0.00,,,0.00,VWS V14.01,2013-04-17 06:25:00,
2013-04-17 02:29:00,61.5,55.3,30.12,West,269,0.0,0.0,80,0.00,,,0.00,VWS V14.01,2013-04-17 06:29:00,
2013-04-17 02:30:00,61.5,55.3,30.12,West,269,0.0,0.0,80,0.00,,,0.00,VWS V14.01,2013-04-17 06:30:00,
2013-04-17 02:34:00,61.5,55.3,30.12,West,269,0.0,0.0,80,0.00,,,0.00,VWS V14.01,2013-04-17 06:34:00,
2013-04-17 02:39:00,61.5,55.6,30.12,WNW,283,2.0,5.0,81,0.00,,,0.00,VWS V14.01,2013-04-17 06:39:00,
2013-04-17 02:44:00,61.5,55.6,30.12,West,275,5.0,6.0,81,0.00,,,0.00,VWS V14.01,2013-04-17 06:44:00,
2013-04-17 02:45:00,61.5,55.3,30.12,WSW,250,5.0,7.0,80,0.00,,,0.00,VWS V14.01,2013-04-17 06:45:00,
2013-04-17 02:49:00,61.7,55.5,30.12,West,277,1.0,6.0,80,0.00,,,0.00,VWS V14.01,2013-04-17 06:49:00,
2013-04-17 02:54:00,61.7,55.5,30.12,WSW,238,0.0,6.0,80,0.00,,,0.00,VWS V14.01,2013-04-17 06:54:00,
2013-04-17 02:59:00,61.7,55.5,30.12,WSW,238,0.0,6.0,80,0.00,,,0.00,VWS V14.01,2013-04-17 06:59:00,
2013-04-17 03:00:00,61.7,55.5,30.12,WSW,238,0.0,6.0,80,0.00,,,0.00,VWS V14.01,2013-04-17 07:00:00,
2013-04-17 03:04:00,61.7,55.5,30.12,WSW,238,0.0,0.0,80,0.00,,,0.00,VWS V14.01,2013-04-17 07:04:00,
2013-04-17 03:09:00,61.5,55.6,30.12,WSW,238,0.0,0.0,81,0.00,,,0.00,VWS V14.01,2013-04-17 07:09:00,
2013-04-17 03:14:00,61.5,55.6,30.12,WSW,238,0.0,0.0,81,0.00,,,0.00,VWS V14.01,2013-04-17 07:14:00,
2013-04-17 03:15:00,61.5,55.6,30.12,WSW,238,0.0,0.0,81,0.00,,,0.00,VWS V14.01,2013-04-17 07:15:00,
2013-04-17 03:19:00,61.4,55.9,30.12,WSW,242,0.0,1.0,82,0.00,,,0.00,VWS V14.01,2013-04-17 07:19:00,
2013-04-17 03:24:00,61.2,55.7,30.12,WSW,242,0.0,1.0,82,0.00,,,0.00,VWS V14.01,2013-04-17 07:24:00,
2013-04-17 03:29:00,61.1,55.9,30.12,NE,51,5.0,6.0,83,0.00,,,0.00,VWS V14.01,2013-04-17 07:29:00,
2013-04-17 03:30:00,61.1,55.9,30.12,NE,51,5.0,6.0,83,0.00,,,0.00,VWS V14.01,2013-04-17 07:30:00,
2013-04-17 03:34:00,60.7,55.8,30.12,NNE,19,8.0,9.0,84,0.00,,,0.00,VWS V14.01,2013-04-17 07:34:00,
2013-04-17 03:39:00,59.8,55.0,30.12,ENE,60,6.0,9.0,84,0.00,,,0.00,VWS V14.01,2013-04-17 07:39:00,
2013-04-17 03:44:00,59.2,54.7,30.14,ENE,61,8.0,9.0,85,0.00,,,0.00,VWS V14.01,2013-04-17 07:44:00,
2013-04-17 03:45:00,59.2,54.7,30.14,NE,48,5.0,9.0,85,0.00,,,0.00,VWS V14.01,2013-04-17 07:45:00,
2013-04-17 03:49:00,58.5,53.7,30.14,NE,55,7.0,10.0,84,0.00,,,0.00,VWS V14.01,2013-04-17 07:49:00,
2013-04-17 03:54:00,57.4,52.6,30.14,NE,35,5.0,12.0,84,0.00,,,0.00,VWS V14.01,2013-04-17 07:54:00,
2013-04-17 03:59:00,56.2,51.1,30.14,ENE,66,6.0,12.0,83,0.00,,,0.00,VWS V14.01,2013-04-17 07:59:00,
2013-04-17 04:00:00,56.1,51.0,30.14,NE,40,6.0,12.0,83,0.00,,,0.00,VWS V14.01,2013-04-17 08:00:00,
2013-04-17 04:04:00,55.6,50.5,30.14,NE,54,6.0,8.0,83,0.00,,,0.00,VWS V14.01,2013-04-17 08:04:00,
2013-04-17 04:09:00,55.0,49.6,30.14,NE,51,4.0,8.0,82,0.00,,,0.00,VWS V14.01,2013-04-17 08:09:00,
2013-04-17 04:14:00,54.6,48.6,30.14,NE,55,5.0,10.0,80,0.00,,,0.00,VWS V14.01,2013-04-17 08:14:00,
2013-04-17 04:15:00,54.4,48.4,30.15,NE,53,4.0,10.0,80,0.00,,,0.00,VWS V14.01,2013-04-17 08:15:00,
2013-04-17 04:19:00,54.1,47.7,30.15,ENE,71,4.0,9.0,79,0.00,,,0.00,VWS V14.01,2013-04-17 08:19:00,
2013-04-17 04:24:00,54.0,47.6,30.15,NNE,28,5.0,9.0,79,0.00,,,0.00,VWS V14.01,2013-04-17 08:24:00,
2013-04-17 04:29:00,53.7,47.0,30.15,NNE,22,6.0,9.0,78,0.00,,,0.00,VWS V14.01,2013-04-17 08:29:00,
2013-04-17 04:30:00,53.7,47.0,30.16,NNE,33,0.0,9.0,78,0.00,,,0.00,VWS V14.01,2013-04-17 08:30:00,
2013-04-17 04:34:00,53.5,46.5,30.16,NNE,32,3.0,14.0,77,0.00,,,0.00,VWS V14.01,2013-04-17 08:34:00,
2013-04-17 04:39:00,53.4,46.4,30.16,ENE,66,0.0,14.0,77,0.00,,,0.00,VWS V14.01,2013-04-17 08:39:00,
2013-04-17 04:44:00,53.3,46.3,30.16,NE,38,9.0,14.0,77,0.00,,,0.00,VWS V14.01,2013-04-17 08:44:00,
2013-04-17 04:45:00,53.3,46.3,30.14,ENE,63,8.0,14.0,77,0.00,,,0.00,VWS V14.01,2013-04-17 08:45:00,
2013-04-17 04:49:00,53.1,46.1,30.14,East,87,0.0,8.0,77,0.00,,,0.00,VWS V14.01,2013-04-17 08:49:00,
2013-04-17 04:54:00,53.1,46.1,30.14,ENE,76,0.0,10.0,77,0.00,,,0.00,VWS V14.01,2013-04-17 08:54:00,
2013-04-17 04:59:00,53.1,46.1,30.14,NNE,22,0.0,10.0,77,0.00,,,0.00,VWS V14.01,2013-04-17 08:59:00,
2013-04-17 05:00:00,53.1,46.1,30.14,ENE,62,2.0,10.0,77,0.00,,,0.00,VWS V14.01,2013-04-17 09:00:00,
2013-04-17 05:04:00,53.0,46.3,30.14,ENE,61,3.0,7.0,78,0.00,,,0.00,VWS V14.01,2013-04-17 09:04:00,
2013-04-17 05:09:00,53.0,46.3,30.14,NE,42,0.0,7.0,78,0.00,,,0.00,VWS V14.01,2013-04-17 09:09:00,
2013-04-17 05:14:00,53.0,46.3,30.14,NE,54,5.0,10.0,78,0.00,,,0.00,VWS V14.01,2013-04-17 09:14:00,
2013-04-17 05:15:00,53.0,46.3,30.14,NNE,33,0.0,10.0,78,0.00,,,0.00,VWS V14.01,2013-04-17 09:15:00,
2013-04-17 05:19:00,53.0,46.3,30.14,NE,44,0.0,8.0,78,0.00,,,0.00,VWS V14.01,2013-04-17 09:19:00,
2013-04-17 05:24:00,53.0,46.7,30.14,ENE,63,5.0,8.0,79,0.00,,,0.00,VWS V14.01,2013-04-17 09:24:00,
2013-04-17 05:29:00,53.0,46.7,30.14,NE,45,0.0,9.0,79,0.00,,,0.00,VWS V14.01,2013-04-17 09:29:00,
2013-04-17 05:30:00,52.8,46.5,30.13,NE,40,5.0,9.0,79,0.00,,,0.00,VWS V14.01,2013-04-17 09:30:00,
2013-04-17 05:34:00,52.8,46.5,30.13,NNE,32,0.0,12.0,79,0.00,,,0.00,VWS V14.01,2013-04-17 09:34:00,
2013-04-17 05:39:00,52.8,46.5,30.13,NE,55,7.0,12.0,79,0.00,,,0.00,VWS V14.01,2013-04-17 09:39:00,
2013-04-17 05:44:00,52.7,46.4,30.13,NE,51,4.0,12.0,79,0.00,,,0.00,VWS V14.01,2013-04-17 09:44:00,
2013-04-17 05:45:00,52.7,46.4,30.14,ENE,61,0.0,12.0,79,0.00,,,0.00,VWS V14.01,2013-04-17 09:45:00,
2013-04-17 05:49:00,52.7,46.4,30.14,NE,52,0.0,3.0,79,0.00,,,0.00,VWS V14.01,2013-04-17 09:49:00,
2013-04-17 05:54:00,52.7,46.0,30.14,NE,43,0.0,10.0,78,0.00,,,0.00,VWS V14.01,2013-04-17 09:54:00,
2013-04-17 05:59:00,52.5,45.2,30.14,NE,42,0.0,10.0,76,0.00,,,0.00,VWS V14.01,2013-04-17 09:59:00,
2013-04-17 06:00:00,52.5,45.2,30.16,North,9,1.0,10.0,76,0.00,,,0.00,VWS V14.01,2013-04-17 10:00:00,
2013-04-17 06:04:00,52.5,44.8,30.16,NE,49,8.0,9.0,75,0.00,,,0.00,VWS V14.01,2013-04-17 10:04:00,
2013-04-17 06:09:00,52.4,44.0,30.16,East,84,5.0,10.0,73,0.00,,,0.00,VWS V14.01,2013-04-17 10:09:00,
2013-04-17 06:14:00,52.4,43.7,30.16,NE,42,3.0,13.0,72,0.00,,,0.00,VWS V14.01,2013-04-17 10:14:00,
2013-04-17 06:15:00,52.4,43.7,30.16,NNE,30,7.0,13.0,72,0.00,,,0.00,VWS V14.01,2013-04-17 10:15:00,
2013-04-17 06:19:00,52.4,43.3,30.16,NNE,20,3.0,12.0,71,0.00,,,0.00,VWS V14.01,2013-04-17 10:19:00,
2013-04-17 06:24:00,52.2,43.1,30.16,East,90,2.0,12.0,71,0.00,,,0.00,VWS V14.01,2013-04-17 10:24:00,
2013-04-17 06:29:00,52.2,42.7,30.16,North,5,1.0,12.0,70,0.00,,,0.00,VWS V14.01,2013-04-17 10:29:00,
2013-04-17 06:30:00,52.2,42.7,30.18,ENE,61,0.0,12.0,70,0.00,,,0.00,VWS V14.01,2013-04-17 10:30:00,
2013-04-17 06:34:00,52.2,42.7,30.18,NNE,18,0.0,6.0,70,0.00,,,0.00,VWS V14.01,2013-04-17 10:34:00,
2013-04-17 06:39:00,52.1,42.6,30.18,NE,40,3.0,6.0,70,0.00,,,0.00,VWS V14.01,2013-04-17 10:39:00,
2013-04-17 06:44:00,52.1,42.6,30.18,ENE,61,2.0,6.0,70,0.00,,,0.00,VWS V14.01,2013-04-17 10:44:00,
2013-04-17 06:45:00,52.1,42.6,30.19,ENE,61,0.0,6.0,70,0.00,,,0.00,VWS V14.01,2013-04-17 10:45:00,
2013-04-17 06:49:00,52.1,43.0,30.19,ENE,61,0.0,5.0,71,0.00,,,0.00,VWS V14.01,2013-04-17 10:49:00,
2013-04-17 06:54:00,51.9,42.8,30.19,ENE,69,0.0,5.0,71,0.00,,,0.00,VWS V14.01,2013-04-17 10:54:00,
2013-04-17 06:59:00,51.9,42.8,30.19,ENE,69,0.0,5.0,71,0.00,,,0.00,VWS V14.01,2013-04-17 10:59:00,
2013-04-17 07:00:00,51.9,43.2,30.20,ENE,69,0.0,5.0,72,0.00,,,0.00,VWS V14.01,2013-04-17 11:00:00,
2013-04-17 07:04:00,51.9,42.8,30.20,NNE,30,1.0,5.0,71,0.00,,,0.00,VWS V14.01,2013-04-17 11:04:00,
2013-04-17 07:09:00,51.9,42.8,30.20,NNE,30,0.0,5.0,71,0.00,,,0.00,VWS V14.01,2013-04-17 11:09:00,
2013-04-17 07:14:00,51.9,42.8,30.20,ENE,60,0.0,7.0,71,0.00,,,0.00,VWS V14.01,2013-04-17 11:14:00,
2013-04-17 07:15:00,52.1,43.0,30.22,ENE,59,4.0,7.0,71,0.00,,,0.00,VWS V14.01,2013-04-17 11:15:00,
2013-04-17 07:19:00,52.1,43.0,30.22,NNE,28,0.0,4.0,71,0.00,,,0.00,VWS V14.01,2013-04-17 11:19:00,
2013-04-17 07:24:00,52.1,42.2,30.22,North,349,1.0,10.0,69,0.00,,,0.00,VWS V14.01,2013-04-17 11:24:00,
2013-04-17 07:29:00,52.1,41.9,30.22,NNE,15,4.0,10.0,68,0.00,,,0.00,VWS V14.01,2013-04-17 11:29:00,
2013-04-17 07:30:00,52.1,41.9,30.22,NNE,24,10.0,10.0,68,0.00,,,0.00,VWS V14.01,2013-04-17 11:30:00,
2013-04-17 07:34:00,52.1,41.9,30.22,NNE,22,2.0,10.0,68,0.00,,,0.00,VWS V14.01,2013-04-17 11:34:00,
2013-04-17 07:39:00,52.2,42.0,30.22,NE,49,6.0,10.0,68,0.00,,,0.00,VWS V14.01,2013-04-17 11:39:00,
2013-04-17 07:44:00,52.2,41.6,30.22,NE,36,4.0,10.0,67,0.00,,,0.00,VWS V14.01,2013-04-17 11:44:00,
2013-04-17 07:45:00,52.2,41.6,30.23,NE,46,1.0,10.0,67,0.00,,,0.00,VWS V14.01,2013-04-17 11:45:00,
2013-04-17 07:49:00,52.2,41.2,30.23,ENE,58,5.0,6.0,66,0.00,,,0.00,VWS V14.01,2013-04-17 11:49:00,
2013-04-17 07:54:00,52.2,40.8,30.23,NE,46,6.0,11.0,65,0.00,,,0.00,VWS V14.01,2013-04-17 11:54:00,
2013-04-17 07:59:00,52.1,38.7,30.23,NNE,21,5.0,13.0,60,0.00,,,0.00,VWS V14.01,2013-04-17 11:59:00,
2013-04-17 08:00:00,51.9,37.6,30.24,ENE,61,7.0,15.0,58,0.00,,,0.00,VWS V14.01,2013-04-17 12:00:00,
2013-04-17 08:04:00,51.9,37.6,30.24,NE,56,0.0,9.0,58,0.00,,,0.00,VWS V14.01,2013-04-17 12:04:00,
2013-04-17 08:09:00,51.9,37.2,30.24,NNW,347,5.0,10.0,57,0.00,,,0.00,VWS V14.01,2013-04-17 12:09:00,
2013-04-17 08:14:00,51.9,37.2,30.24,ENE,59,0.0,11.0,57,0.00,,,0.00,VWS V14.01,2013-04-17 12:14:00,
2013-04-17 08:15:00,51.8,37.1,30.24,ENE,61,0.0,11.0,57,0.00,,,0.00,VWS V14.01,2013-04-17 12:15:00,
2013-04-17 08:19:00,51.8,36.6,30.24,NE,56,7.0,14.0,56,0.00,,,0.00,VWS V14.01,2013-04-17 12:19:00,
2013-04-17 08:24:00,51.6,36.0,30.24,NNE,26,9.0,14.0,55,0.00,,,0.00,VWS V14.01,2013-04-17 12:24:00,
2013-04-17 08:28:00,51.6,36.0,30.24,NNE,32,4.0,14.0,55,0.00,,,0.00,VWS V14.01,2013-04-17 12:28:00,
2013-04-17 08:30:00,51.8,36.6,30.24,ENE,69,0.0,14.0,56,0.00,,,0.00,VWS V14.01,2013-04-17 12:30:00,
2013-04-17 08:33:00,51.8,35.7,30.24,NNE,25,5.0,11.0,54,0.00,,,0.00,VWS V14.01,2013-04-17 12:33:00,
2013-04-17 08:38:00,51.9,35.8,30.24,NE,46,6.0,13.0,54,0.00,,,0.00,VWS V14.01,2013-04-17 12:38:00,
2013-04-17 08:43:00,52.2,35.1,30.24,North,355,0.0,13.0,52,0.00,,,0.00,VWS V14.01,2013-04-17 12:43:00,
2013-04-17 08:45:00,52.4,35.8,30.24,NE,41,5.0,13.0,53,0.00,,,0.00,VWS V14.01,2013-04-17 12:45:00,
2013-04-17 08:48:00,52.4,34.3,30.24,ENE,63,7.0,8.0,50,0.00,,,0.00,VWS V14.01,2013-04-17 12:48:00,
2013-04-17 08:53:00,52.5,34.9,30.24,North,355,8.0,9.0,51,0.00,,,0.00,VWS V14.01,2013-04-17 12:53:00,
2013-04-17 08:58:00,52.7,35.1,30.24,NNE,19,7.0,9.0,51,0.00,,,0.00,VWS V14.01,2013-04-17 12:58:00,
2013-04-17 09:00:00,52.8,35.2,30.24,NE,53,3.0,9.0,51,0.00,,,0.00,VWS V14.01,2013-04-17 13:00:00,
2013-04-17 09:03:00,53.0,34.9,30.24,NE,36,4.0,9.0,50,0.00,,,0.00,VWS V14.01,2013-04-17 13:03:00,
2013-04-17 09:08:00,53.3,34.7,30.24,North,350,4.0,11.0,49,0.00,,,0.00,VWS V14.01,2013-04-17 13:08:00,
2013-04-17 09:13:00,53.7,34.5,30.24,NNE,28,1.0,11.0,48,0.00,,,0.00,VWS V14.01,2013-04-17 13:13:00,
2013-04-17 09:15:00,53.8,34.1,30.24,NE,36,0.0,11.0,47,0.00,,,0.00,VWS V14.01,2013-04-17 13:15:00,
2013-04-17 09:18:00,53.8,34.1,30.24,NE,42,8.0,12.0,47,0.00,,,0.00,VWS V14.01,2013-04-17 13:18:00,
2013-04-17 09:23:00,54.4,35.1,30.24,NE,56,8.0,12.0,48,0.00,,,0.00,VWS V14.01,2013-04-17 13:23:00,
2013-04-17 09:28:00,55.0,34.6,30.24,NE,38,12.0,12.0,46,0.00,,,0.00,VWS V14.01,2013-04-17 13:28:00,
2013-04-17 09:30:00,54.9,33.4,30.24,NE,42,13.0,13.0,44,0.00,,,0.00,VWS V14.01,2013-04-17 13:30:00,
2013-04-17 09:33:00,54.7,32.7,30.24,ENE,62,6.0,13.0,43,0.00,,,0.00,VWS V14.01,2013-04-17 13:33:00,
2013-04-17 09:38:00,54.9,32.3,30.24,NE,54,6.0,13.0,42,0.00,,,0.00,VWS V14.01,2013-04-17 13:38:00,
2013-04-17 09:43:00,55.2,31.9,30.24,WNW,302,0.0,13.0,41,0.00,,,0.00,VWS V14.01,2013-04-17 13:43:00,
2013-04-17 09:45:00,55.3,32.6,30.24,NW,323,6.0,13.0,42,0.00,,,0.00,VWS V14.01,2013-04-17 13:45:00,
2013-04-17 09:48:00,55.3,32.0,30.24,North,11,9.0,11.0,41,0.00,,,0.00,VWS V14.01,2013-04-17 13:48:00,
2013-04-17 09:53:00,55.5,33.4,30.24,ENE,67,9.0,11.0,43,0.00,,,0.00,VWS V14.01,2013-04-17 13:53:00,
2013-04-17 09:58:00,56.4,33.6,30.24,North,360,0.0,11.0,42,0.00,,,0.00,VWS V14.01,2013-04-17 13:58:00,
2013-04-17 10:00:00,56.7,32.7,30.24,North,360,8.0,11.0,40,0.00,,,0.00,VWS V14.01,2013-04-17 14:00:00,
2013-04-17 10:03:00,56.5,31.9,30.24,WNW,303,6.0,9.0,39,0.00,,,0.00,VWS V14.01,2013-04-17 14:03:00,
2013-04-17 10:08:00,56.4,31.8,30.24,NNE,32,0.0,9.0,39,0.00,,,0.00,VWS V14.01,2013-04-17 14:08:00,
2013-04-17 10:13:00,56.7,32.0,30.24,NE,35,5.0,10.0,39,0.00,,,0.00,VWS V14.01,2013-04-17 14:13:00,
2013-04-17 10:15:00,56.8,35.1,30.24,NE,49,3.0,11.0,44,0.00,,,0.00,VWS V14.01,2013-04-17 14:15:00,
2013-04-17 10:18:00,56.5,33.1,30.24,NE,40,10.0,12.0,41,0.00,,,0.00,VWS V14.01,2013-04-17 14:18:00,
2013-04-17 10:23:00,56.7,31.4,30.24,NNE,20,2.0,14.0,38,0.00,,,0.00,VWS V14.01,2013-04-17 14:23:00,
2013-04-17 10:28:00,57.2,31.2,30.24,NNE,14,8.0,14.0,37,0.00,,,0.00,VWS V14.01,2013-04-17 14:28:00,
2013-04-17 10:30:00,57.5,30.8,30.24,NNE,29,0.0,14.0,36,0.00,,,0.00,VWS V14.01,2013-04-17 14:30:00,
2013-04-17 10:33:00,57.5,32.1,30.24,NNE,17,8.0,14.0,38,0.00,,,0.00,VWS V14.01,2013-04-17 14:33:00,
2013-04-17 10:38:00,57.1,32.4,30.24,ENE,61,5.0,14.0,39,0.00,,,0.00,VWS V14.01,2013-04-17 14:38:00,
2013-04-17 10:43:00,58.2,34.0,30.24,NE,51,7.0,14.0,40,0.00,,,0.00,VWS V14.01,2013-04-17 14:43:00,
2013-04-17 10:45:00,57.5,32.1,30.24,ENE,59,7.0,14.0,38,0.00,,,0.00,VWS V14.01,2013-04-17 14:45:00,
2013-04-17 10:48:00,57.2,31.8,30.24,ENE,60,7.0,11.0,38,0.00,,,0.00,VWS V14.01,2013-04-17 14:48:00,
2013-04-17 10:53:00,58.6,35.6,30.24,NE,56,4.0,11.0,42,0.00,,,0.00,VWS V14.01,2013-04-17 14:53:00,
2013-04-17 10:58:00,58.3,31.5,30.24,NNW,329,0.0,13.0,36,0.00,,,0.00,VWS V14.01,2013-04-17 14:58:00,
2013-04-17 11:00:00,58.5,33.7,30.23,North,360,8.0,13.0,39,0.00,,,0.00,VWS V14.01,2013-04-17 15:00:00,
2013-04-17 11:03:00,58.3,34.1,30.23,ENE,76,5.0,13.0,40,0.00,,,0.00,VWS V14.01,2013-04-17 15:03:00,
2013-04-17 11:08:00,58.0,33.2,30.23,NE,37,5.0,13.0,39,0.00,,,0.00,VWS V14.01,2013-04-17 15:08:00,
2013-04-17 11:13:00,58.3,33.5,30.23,NE,45,3.0,13.0,39,0.00,,,0.00,VWS V14.01,2013-04-17 15:13:00,
2013-04-17 11:15:00,58.6,33.1,30.23,NE,49,8.0,13.0,38,0.00,,,0.00,VWS V14.01,2013-04-17 15:15:00,
2013-04-17 11:18:00,58.0,32.6,30.23,NE,41,7.0,11.0,38,0.00,,,0.00,VWS V14.01,2013-04-17 15:18:00,
2013-04-17 11:23:00,58.3,33.5,30.23,North,5,7.0,14.0,39,0.00,,,0.00,VWS V14.01,2013-04-17 15:23:00,
2013-04-17 11:28:00,59.1,33.5,30.23,NE,42,0.0,14.0,38,0.00,,,0.00,VWS V14.01,2013-04-17 15:28:00,
2013-04-17 11:30:00,58.8,31.9,30.22,NE,44,9.0,14.0,36,0.00,,,0.00,VWS V14.01,2013-04-17 15:30:00,
2013-04-17 11:33:00,58.8,33.3,30.22,NNE,23,8.0,10.0,38,0.00,,,0.00,VWS V14.01,2013-04-17 15:33:00,
2013-04-17 11:38:00,58.8,33.3,30.22,NNE,20,6.0,13.0,38,0.00,,,0.00,VWS V14.01,2013-04-17 15:38:00,
2013-04-17 11:43:00,59.4,31.8,30.22,ENE,71,11.0,13.0,35,0.00,,,0.00,VWS V14.01,2013-04-17 15:43:00,
2013-04-17 11:45:00,58.6,30.3,30.22,NE,36,5.0,13.0,34,0.00,,,0.00,VWS V14.01,2013-04-17 15:45:00,
2013-04-17 11:48:00,58.9,31.3,30.22,NE,52,11.0,11.0,35,0.00,,,0.00,VWS V14.01,2013-04-17 15:48:00,
2013-04-17 11:53:00,59.4,31.0,30.22,NE,48,10.0,13.0,34,0.00,,,0.00,VWS V14.01,2013-04-17 15:53:00,
2013-04-17 11:58:00,60.0,33.0,30.22,ENE,57,8.0,13.0,36,0.00,,,0.00,VWS V14.01,2013-04-17 15:58:00,
2013-04-17 12:00:00,60.1,32.4,30.22,East,87,0.0,13.0,35,0.00,,,0.00,VWS V14.01,2013-04-17 16:00:00,
2013-04-17 12:03:00,61.4,31.3,30.22,North,5,6.0,10.0,32,0.00,,,0.00,VWS V14.01,2013-04-17 16:03:00,
2013-04-17 12:08:00,60.9,33.1,30.22,ENE,64,9.0,10.0,35,0.00,,,0.00,VWS V14.01,2013-04-17 16:08:00,
2013-04-17 12:13:00,60.6,30.6,30.22,NW,304,4.0,11.0,32,0.00,,,0.00,VWS V14.01,2013-04-17 16:13:00,
2013-04-17 12:15:00,60.7,30.7,30.22,NNE,22,7.0,12.0,32,0.00,,,0.00,VWS V14.01,2013-04-17 16:15:00,
2013-04-17 12:18:00,61.2,31.1,30.22,NE,34,7.0,8.0,32,0.00,,,0.00,VWS V14.01,2013-04-17 16:18:00,
2013-04-17 12:23:00,61.5,32.2,30.22,North,9,10.0,10.0,33,0.00,,,0.00,VWS V14.01,2013-04-17 16:23:00,
2013-04-17 12:28:00,61.1,31.0,30.22,ENE,61,9.0,12.0,32,0.00,,,0.00,VWS V14.01,2013-04-17 16:28:00,
2013-04-17 12:30:00,60.7,31.5,30.22,ENE,61,0.0,12.0,33,0.00,,,0.00,VWS V14.01,2013-04-17 16:30:00,
2013-04-17 12:33:00,61.5,32.2,30.22,ENE,57,8.0,11.0,33,0.00,,,0.00,VWS V14.01,2013-04-17 16:33:00,
2013-04-17 12:38:00,61.7,31.6,30.22,NE,49,0.0,11.0,32,0.00,,,0.00,VWS V14.01,2013-04-17 16:38:00,
2013-04-17 12:43:00,62.3,32.1,30.22,ENE,59,2.0,11.0,32,0.00,,,0.00,VWS V14.01,2013-04-17 16:43:00,
2013-04-17 12:45:00,62.3,31.3,30.21,NNE,32,10.0,11.0,31,0.00,,,0.00,VWS V14.01,2013-04-17 16:45:00,
2013-04-17 12:48:00,61.8,30.9,30.21,ENE,57,7.0,13.0,31,0.00,,,0.00,VWS V14.01,2013-04-17 16:48:00,
2013-04-17 12:53:00,63.1,32.0,30.21,NNE,16,0.0,13.0,31,0.00,,,0.00,VWS V14.01,2013-04-17 16:53:00,
2013-04-17 12:58:00,62.0,31.8,30.21,ENE,61,6.0,13.0,32,0.00,,,0.00,VWS V14.01,2013-04-17 16:58:00,
2013-04-17 13:00:00,62.0,31.8,30.20,NE,43,7.0,13.0,32,0.00,,,0.00,VWS V14.01,2013-04-17 17:00:00,
2013-04-17 13:03:00,62.5,32.3,30.20,North,360,5.0,11.0,32,0.00,,,0.00,VWS V14.01,2013-04-17 17:03:00,
2013-04-17 13:08:00,63.1,31.2,30.20,NE,41,0.0,11.0,30,0.00,,,0.00,VWS V14.01,2013-04-17 17:08:00,
2013-04-17 13:13:00,62.9,31.8,30.20,NE,38,5.0,11.0,31,0.00,,,0.00,VWS V14.01,2013-04-17 17:13:00,
2013-04-17 13:15:00,62.5,30.7,30.21,NE,55,5.0,11.0,30,0.00,,,0.00,VWS V14.01,2013-04-17 17:15:00,
2013-04-17 13:18:00,62.0,31.0,30.21,NE,56,0.0,6.0,31,0.00,,,0.00,VWS V14.01,2013-04-17 17:18:00,
2013-04-17 13:23:00,64.1,32.1,30.21,ENE,60,0.0,6.0,30,0.00,,,0.00,VWS V14.01,2013-04-17 17:23:00,
2013-04-17 13:28:00,63.9,31.9,30.21,East,88,6.0,11.0,30,0.00,,,0.00,VWS V14.01,2013-04-17 17:28:00,
2013-04-17 13:30:00,63.6,30.8,30.21,ENE,69,6.0,11.0,29,0.00,,,0.00,VWS V14.01,2013-04-17 17:30:00,
2013-04-17 13:33:00,63.6,31.6,30.21,ENE,77,3.0,10.0,30,0.00,,,0.00,VWS V14.01,2013-04-17 17:33:00,
2013-04-17 13:38:00,63.6,31.6,30.21,ENE,61,8.0,10.0,30,0.00,,,0.00,VWS V14.01,2013-04-17 17:38:00,
2013-04-17 13:43:00,63.6,30.8,30.21,ENE,64,4.0,10.0,29,0.00,,,0.00,VWS V14.01,2013-04-17 17:43:00,
2013-04-17 13:45:00,65.5,32.4,30.20,ESE,117,0.0,10.0,29,0.00,,,0.00,VWS V14.01,2013-04-17 17:45:00,
2013-04-17 13:48:00,66.0,32.9,30.20,ENE,69,0.0,0.0,29,0.00,,,0.00,VWS V14.01,2013-04-17 17:48:00,
2013-04-17 13:53:00,66.2,31.3,30.20,NE,42,0.0,11.0,27,0.00,,,0.00,VWS V14.01,2013-04-17 17:53:00,
2013-04-17 13:58:00,66.2,32.2,30.20,NE,42,7.0,11.0,28,0.00,,,0.00,VWS V14.01,2013-04-17 17:58:00,
2013-04-17 14:00:00,65.7,32.6,30.20,ENE,65,10.0,11.0,29,0.00,,,0.00,VWS V14.01,2013-04-17 18:00:00,
2013-04-17 14:03:00,65.7,31.7,30.20,NE,49,5.0,11.0,28,0.00,,,0.00,VWS V14.01,2013-04-17 18:03:00,
2013-04-17 14:08:00,66.0,32.0,30.20,NE,44,1.0,11.0,28,0.00,,,0.00,VWS V14.01,2013-04-17 18:08:00,
2013-04-17 14:13:00,65.8,31.8,30.20,NE,41,0.0,11.0,28,0.00,,,0.00,VWS V14.01,2013-04-17 18:13:00,
2013-04-17 14:15:00,67.0,33.7,30.21,NE,42,0.0,11.0,29,0.00,,,0.00,VWS V14.01,2013-04-17 18:15:00,
2013-04-17 14:18:00,67.1,31.1,30.21,ENE,58,7.0,9.0,26,0.00,,,0.00,VWS V14.01,2013-04-17 18:18:00,
2013-04-17 14:23:00,66.2,30.3,30.21,North,360,9.0,14.0,26,0.00,,,0.00,VWS V14.01,2013-04-17 18:23:00,
2013-04-17 14:28:00,67.1,32.0,30.21,East,94,4.0,14.0,27,0.00,,,0.00,VWS V14.01,2013-04-17 18:28:00,
2013-04-17 14:30:00,67.1,32.9,30.20,ENE,67,6.0,14.0,28,0.00,,,0.00,VWS V14.01,2013-04-17 18:30:00,
2013-04-17 14:33:00,67.0,32.0,30.20,East,92,4.0,10.0,27,0.00,,,0.00,VWS V14.01,2013-04-17 18:33:00,
2013-04-17 14:38:00,67.1,32.0,30.20,ENE,71,5.0,10.0,27,0.00,,,0.00,VWS V14.01,2013-04-17 18:38:00,
2013-04-17 14:43:00,67.8,34.4,30.20,NE,56,0.0,10.0,29,0.00,,,0.00,VWS V14.01,2013-04-17 18:43:00,
2013-04-17 14:45:00,69.0,30.7,30.20,NNW,342,0.0,10.0,24,0.00,,,0.00,VWS V14.01,2013-04-17 18:45:00,
2013-04-17 14:48:00,68.1,31.0,30.20,ENE,61,8.0,13.0,25,0.00,,,0.00,VWS V14.01,2013-04-17 18:48:00,
2013-04-17 14:52:00,66.5,31.5,30.20,NE,53,0.0,13.0,27,0.00,,,0.00,VWS V14.01,2013-04-17 18:52:00,
2013-04-17 14:57:00,67.8,32.6,30.20,NE,41,9.0,13.0,27,0.00,,,0.00,VWS V14.01,2013-04-17 18:57:00,
2013-04-17 15:00:00,66.8,31.8,30.20,NE,53,6.0,13.0,27,0.00,,,0.00,VWS V14.01,2013-04-17 19:00:00,
2013-04-17 15:02:00,66.5,30.6,30.20,NE,53,0.0,6.0,26,0.00,,,0.00,VWS V14.01,2013-04-17 19:02:00,
2013-04-17 15:07:00,68.0,33.7,30.20,North,360,0.0,6.0,28,0.00,,,0.00,VWS V14.01,2013-04-17 19:07:00,
2013-04-17 15:12:00,68.3,33.1,30.20,ESE,105,0.0,7.0,27,0.00,,,0.00,VWS V14.01,2013-04-17 19:12:00,
2013-04-17 15:15:00,68.3,34.8,30.19,ENE,65,6.0,9.0,29,0.00,,,0.00,VWS V14.01,2013-04-17 19:15:00,
2013-04-17 15:17:00,67.6,31.5,30.19,NE,44,6.0,12.0,26,0.00,,,0.00,VWS V14.01,2013-04-17 19:17:00,
2013-04-17 15:22:00,67.0,31.0,30.19,NE,44,5.0,12.0,26,0.00,,,0.00,VWS V14.01,2013-04-17 19:22:00,
2013-04-17 15:27:00,69.0,31.8,30.19,NE,40,0.0,12.0,25,0.00,,,0.00,VWS V14.01,2013-04-17 19:27:00,
2013-04-17 15:30:00,69.8,32.4,30.19,NE,50,6.0,12.0,25,0.00,,,0.00,VWS V14.01,2013-04-17 19:30:00,
2013-04-17 15:32:00,69.1,31.8,30.19,ENE,64,7.0,11.0,25,0.00,,,0.00,VWS V14.01,2013-04-17 19:32:00,
2013-04-17 15:37:00,69.0,30.7,30.19,NNE,13,0.0,11.0,24,0.00,,,0.00,VWS V14.01,2013-04-17 19:37:00,
2013-04-17 15:42:00,68.8,30.6,30.19,NNE,22,5.0,11.0,24,0.00,,,0.00,VWS V14.01,2013-04-17 19:42:00,
2013-04-17 15:45:00,69.1,30.8,30.19,North,9,0.0,11.0,24,0.00,,,0.00,VWS V14.01,2013-04-17 19:45:00,
2013-04-17 15:47:00,69.6,31.2,30.19,NNE,19,6.0,6.0,24,0.00,,,0.00,VWS V14.01,2013-04-17 19:47:00,
2013-04-17 15:52:00,68.8,30.6,30.19,ENE,57,7.0,11.0,24,0.00,,,0.00,VWS V14.01,2013-04-17 19:52:00,
2013-04-17 15:57:00,68.6,33.3,30.19,ENE,59,0.0,11.0,27,0.00,,,0.00,VWS V14.01,2013-04-17 19:57:00,
2013-04-17 16:00:00,69.6,31.2,30.19,SW,234,1.0,11.0,24,0.00,,,0.00,VWS V14.01,2013-04-17 20:00:00,
2013-04-17 16:02:00,69.5,30.1,30.19,NNE,25,2.0,2.0,23,0.00,,,0.00,VWS V14.01,2013-04-17 20:02:00,
2013-04-17 16:07:00,69.1,30.8,30.19,ENE,62,1.0,8.0,24,0.00,,,0.00,VWS V14.01,2013-04-17 20:07:00,
2013-04-17 16:12:00,69.6,31.2,30.19,ENE,60,0.0,10.0,24,0.00,,,0.00,VWS V14.01,2013-04-17 20:12:00,
2013-04-17 16:15:00,69.8,33.4,30.19,ENE,61,0.0,10.0,26,0.00,,,0.00,VWS V14.01,2013-04-17 20:15:00,
2013-04-17 16:17:00,70.1,30.6,30.19,NE,46,7.0,7.0,23,0.00,,,0.00,VWS V14.01,2013-04-17 20:17:00,
2013-04-17 16:22:00,71.7,30.9,30.19,NNE,22,2.0,7.0,22,0.00,,,0.00,VWS V14.01,2013-04-17 20:22:00,
2013-04-17 16:27:00,72.2,31.3,30.19,NNE,24,1.0,10.0,22,0.00,,,0.00,VWS V14.01,2013-04-17 20:27:00,
2013-04-17 16:30:00,72.3,32.5,30.18,NE,34,4.0,10.0,23,0.00,,,0.00,VWS V14.01,2013-04-17 20:30:00,
2013-04-17 16:32:00,72.3,31.4,30.18,ENE,60,5.0,8.0,22,0.00,,,0.00,VWS V14.01,2013-04-17 20:32:00,
2013-04-17 16:37:00,72.2,31.3,30.18,East,90,2.0,8.0,22,0.00,,,0.00,VWS V14.01,2013-04-17 20:37:00,
2013-04-17 16:42:00,72.7,31.7,30.18,NE,50,4.0,8.0,22,0.00,,,0.00,VWS V14.01,2013-04-17 20:42:00,
2013-04-17 16:45:00,72.7,30.5,30.18,ESE,117,0.0,8.0,21,0.00,,,0.00,VWS V14.01,2013-04-17 20:45:00,
2013-04-17 16:47:00,73.2,32.1,30.18,ENE,63,7.0,7.0,22,0.00,,,0.00,VWS V14.01,2013-04-17 20:47:00,
2013-04-17 16:52:00,72.7,33.9,30.18,NNE,19,0.0,7.0,24,0.00,,,0.00,VWS V14.01,2013-04-17 20:52:00,
2013-04-17 16:57:00,72.7,32.8,30.18,West,281,1.0,7.0,23,0.00,,,0.00,VWS V14.01,2013-04-17 20:57:00,
2013-04-17 17:00:00,72.3,31.4,30.19,North,351,5.0,7.0,22,0.00,,,0.00,VWS V14.01,2013-04-17 21:00:00,
2013-04-17 17:02:00,72.2,31.3,30.19,North,11,4.0,6.0,22,0.00,,,0.00,VWS V14.01,2013-04-17 21:02:00,
2013-04-17 17:07:00,72.0,32.2,30.19,NE,45,1.0,8.0,23,0.00,,,0.00,VWS V14.01,2013-04-17 21:07:00,
2013-04-17 17:12:00,71.8,33.1,30.19,NNW,346,8.0,8.0,24,0.00,,,0.00,VWS V14.01,2013-04-17 21:12:00,
2013-04-17 17:15:00,71.5,31.8,30.19,NE,49,6.0,8.0,23,0.00,,,0.00,VWS V14.01,2013-04-17 21:15:00,
2013-04-17 17:17:00,71.5,32.8,30.19,NE,39,0.0,6.0,24,0.00,,,0.00,VWS V14.01,2013-04-17 21:17:00,
2013-04-17 17:22:00,72.3,31.4,30.19,NE,39,0.0,6.0,22,0.00,,,0.00,VWS V14.01,2013-04-17 21:22:00,
2013-04-17 17:27:00,72.9,30.7,30.19,NE,39,0.0,6.0,21,0.00,,,0.00,VWS V14.01,2013-04-17 21:27:00,
2013-04-17 17:30:00,72.7,31.7,30.20,NE,39,0.0,6.0,22,0.00,,,0.00,VWS V14.01,2013-04-17 21:30:00,
2013-04-17 17:32:00,72.7,31.7,30.20,ENE,75,0.0,1.0,22,0.00,,,0.00,VWS V14.01,2013-04-17 21:32:00,
2013-04-17 17:37:00,73.7,32.5,30.20,ENE,71,0.0,1.0,22,0.00,,,0.00,VWS V14.01,2013-04-17 21:37:00,
2013-04-17 17:42:00,72.7,30.5,30.20,NE,52,4.0,9.0,21,0.00,,,0.00,VWS V14.01,2013-04-17 21:42:00,
2013-04-17 17:45:00,72.3,31.4,30.20,ESE,121,0.0,9.0,22,0.00,,,0.00,VWS V14.01,2013-04-17 21:45:00,
2013-04-17 17:47:00,72.2,31.3,30.20,East,97,1.0,5.0,22,0.00,,,0.00,VWS V14.01,2013-04-17 21:47:00,
2013-04-17 17:52:00,72.0,31.1,30.20,North,5,0.0,5.0,22,0.00,,,0.00,VWS V14.01,2013-04-17 21:52:00,
2013-04-17 17:57:00,71.8,30.9,30.20,NE,51,5.0,9.0,22,0.00,,,0.00,VWS V14.01,2013-04-17 21:57:00,
2013-04-17 18:00:00,71.3,30.5,30.20,NNE,15,4.0,9.0,22,0.00,,,0.00,VWS V14.01,2013-04-17 22:00:00,
2013-04-17 18:02:00,71.0,30.3,30.20,NNE,19,8.0,8.0,22,0.00,,,0.00,VWS V14.01,2013-04-17 22:02:00,
2013-04-17 18:07:00,70.3,32.8,30.20,NE,39,0.0,8.0,25,0.00,,,0.00,VWS V14.01,2013-04-17 22:07:00,
2013-04-17 18:12:00,70.1,30.6,30.20,NE,39,0.0,8.0,23,0.00,,,0.00,VWS V14.01,2013-04-17 22:12:00,
2013-04-17 18:15:00,70.1,30.6,30.20,NE,39,0.0,8.0,23,0.00,,,0.00,VWS V14.01,2013-04-17 22:15:00,
2013-04-17 18:17:00,70.3,32.8,30.20,NE,39,3.0,3.0,25,0.00,,,0.00,VWS V14.01,2013-04-17 22:17:00,
2013-04-17 18:22:00,70.1,31.7,30.20,NE,39,0.0,5.0,24,0.00,,,0.00,VWS V14.01,2013-04-17 22:22:00,
2013-04-17 18:27:00,70.3,32.8,30.20,NNE,27,0.0,5.0,25,0.00,,,0.00,VWS V14.01,2013-04-17 22:27:00,
2013-04-17 18:30:00,69.8,30.4,30.20,ENE,57,5.0,9.0,23,0.00,,,0.00,VWS V14.01,2013-04-17 22:30:00,
2013-04-17 18:32:00,69.6,31.2,30.20,NE,38,6.0,7.0,24,0.00,,,0.00,VWS V14.01,2013-04-17 22:32:00,
2013-04-17 18:37:00,69.1,30.8,30.20,NE,54,7.0,7.0,24,0.00,,,0.00,VWS V14.01,2013-04-17 22:37:00,
2013-04-17 18:42:00,68.8,30.6,30.20,NE,46,3.0,8.0,24,0.00,,,0.00,VWS V14.01,2013-04-17 22:42:00,
2013-04-17 18:45:00,68.6,32.4,30.20,NE,46,0.0,8.0,26,0.00,,,0.00,VWS V14.01,2013-04-17 22:45:00,
2013-04-17 18:47:00,68.8,31.6,30.20,NE,46,0.0,2.0,25,0.00,,,0.00,VWS V14.01,2013-04-17 22:47:00,
2013-04-17 18:52:00,68.5,30.3,30.20,NE,56,1.0,6.0,24,0.00,,,0.00,VWS V14.01,2013-04-17 22:52:00,
2013-04-17 18:57:00,68.3,32.1,30.20,NE,56,0.0,6.0,26,0.00,,,0.00,VWS V14.01,2013-04-17 22:57:00,
2013-04-17 19:00:00,68.1,31.0,30.21,NE,56,0.0,6.0,25,0.00,,,0.00,VWS V14.01,2013-04-17 23:00:00,
2013-04-17 19:02:00,68.1,31.0,30.21,NE,56,0.0,0.0,25,0.00,,,0.00,VWS V14.01,2013-04-17 23:02:00,
2013-04-17 19:07:00,68.0,32.8,30.21,ENE,57,0.0,1.0,27,0.00,,,0.00,VWS V14.01,2013-04-17 23:07:00,
2013-04-17 19:12:00,67.8,30.7,30.21,ENE,57,0.0,1.0,25,0.00,,,0.00,VWS V14.01,2013-04-17 23:12:00,
2013-04-17 19:15:00,67.6,30.6,30.21,ENE,57,0.0,4.0,25,0.00,,,0.00,VWS V14.01,2013-04-17 23:15:00,
2013-04-17 19:17:00,67.5,33.3,30.21,ENE,57,0.0,0.0,28,0.00,,,0.00,VWS V14.01,2013-04-17 23:17:00,
2013-04-17 19:22:00,67.1,31.1,30.21,ENE,71,0.0,6.0,26,0.00,,,0.00,VWS V14.01,2013-04-17 23:22:00,
2013-04-17 19:27:00,66.8,30.8,30.21,ENE,71,0.0,6.0,26,0.00,,,0.00,VWS V14.01,2013-04-17 23:27:00,
2013-04-17 19:30:00,66.6,31.6,30.22,ENE,71,0.0,6.0,27,0.00,,,0.00,VWS V14.01,2013-04-17 23:30:00,
2013-04-17 19:32:00,66.5,33.3,30.22,ENE,71,0.0,0.0,29,0.00,,,0.00,VWS V14.01,2013-04-17 23:32:00,
2013-04-17 19:37:00,66.2,33.0,30.22,ENE,71,0.0,4.0,29,0.00,,,0.00,VWS V14.01,2013-04-17 23:37:00,
2013-04-17 19:42:00,65.7,32.6,30.22,ENE,70,0.0,4.0,29,0.00,,,0.00,VWS V14.01,2013-04-17 23:42:00,
2013-04-17 19:45:00,65.5,34.1,30.22,ENE,70,0.0,4.0,31,0.00,,,0.00,VWS V14.01,2013-04-17 23:45:00,
2013-04-17 19:47:00,65.4,31.5,30.22,ENE,70,0.0,0.0,28,0.00,,,0.00,VWS V14.01,2013-04-17 23:47:00,
2013-04-17 19:52:00,65.2,32.2,30.22,ENE,70,0.0,0.0,29,0.00,,,0.00,VWS V14.01,2013-04-17 23:52:00,
2013-04-17 19:57:00,64.9,35.1,30.22,ENE,70,0.0,0.0,33,0.00,,,0.00,VWS V14.01,2013-04-17 23:57:00,
2013-04-17 20:00:00,64.5,36.3,30.22,ENE,70,0.0,0.0,35,0.00,,,0.00,VWS V14.01,2013-04-18 00:00:00,
2013-04-17 20:02:00,64.4,37.6,30.22,ENE,70,0.0,0.0,37,0.00,,,0.00,VWS V14.01,2013-04-18 00:02:00,
2013-04-17 20:07:00,63.7,36.3,30.22,ENE,70,0.0,1.0,36,0.00,,,0.00,VWS V14.01,2013-04-18 00:07:00,
2013-04-17 20:12:00,62.8,35.5,30.22,ENE,70,0.0,1.0,36,0.00,,,0.00,VWS V14.01,2013-04-18 00:12:00,
2013-04-17 20:15:00,62.3,35.7,30.23,ENE,70,0.0,1.0,37,0.00,,,0.00,VWS V14.01,2013-04-18 00:15:00,
2013-04-17 20:17:00,62.2,36.3,30.23,ENE,70,0.0,0.0,38,0.00,,,0.00,VWS V14.01,2013-04-18 00:17:00,
2013-04-17 20:22:00,61.5,35.7,30.23,ENE,70,0.0,0.0,38,0.00,,,0.00,VWS V14.01,2013-04-18 00:22:00,
2013-04-17 20:27:00,61.1,37.2,30.23,ENE,70,0.0,0.0,41,0.00,,,0.00,VWS V14.01,2013-04-18 00:27:00,
2013-04-17 20:30:00,60.7,35.0,30.23,ENE,70,0.0,0.0,38,0.00,,,0.00,VWS V14.01,2013-04-18 00:30:00,
2013-04-17 20:32:00,60.6,38.6,30.23,ENE,70,0.0,0.0,44,0.00,,,0.00,VWS V14.01,2013-04-18 00:32:00,
2013-04-17 20:37:00,60.0,36.2,30.23,ENE,70,0.0,0.0,41,0.00,,,0.00,VWS V14.01,2013-04-18 00:37:00,
2013-04-17 20:42:00,59.4,35.1,30.23,ENE,70,0.0,0.0,40,0.00,,,0.00,VWS V14.01,2013-04-18 00:42:00,
2013-04-17 20:45:00,59.2,38.5,30.24,ENE,70,0.0,0.0,46,0.00,,,0.00,VWS V14.01,2013-04-18 00:45:00,
2013-04-17 20:47:00,59.1,40.0,30.24,ENE,70,0.0,0.0,49,0.00,,,0.00,VWS V14.01,2013-04-18 00:47:00,
2013-04-17 20:52:00,58.6,37.3,30.24,ENE,70,0.0,0.0,45,0.00,,,0.00,VWS V14.01,2013-04-18 00:52:00,
2013-04-17 20:57:00,58.3,37.6,30.24,ENE,70,0.0,0.0,46,0.00,,,0.00,VWS V14.01,2013-04-18 00:57:00,
2013-04-17 21:00:00,58.0,41.9,30.25,ENE,70,0.0,1.0,55,0.00,,,0.00,VWS V14.01,2013-04-18 01:00:00,
2013-04-17 21:02:00,57.8,40.3,30.25,ENE,70,0.0,0.0,52,0.00,,,0.00,VWS V14.01,2013-04-18 01:02:00,
2013-04-17 21:07:00,57.2,37.7,30.25,ENE,70,0.0,0.0,48,0.00,,,0.00,VWS V14.01,2013-04-18 01:07:00,
2013-04-17 21:12:00,56.9,37.4,30.25,ENE,70,0.0,0.0,48,0.00,,,0.00,VWS V14.01,2013-04-18 01:12:00,
2013-04-17 21:15:00,56.7,39.8,30.25,ENE,70,0.0,0.0,53,0.00,,,0.00,VWS V14.01,2013-04-18 01:15:00,
2013-04-17 21:17:00,56.5,39.6,30.25,ENE,70,0.0,0.0,53,0.00,,,0.00,VWS V14.01,2013-04-18 01:17:00,
2013-04-17 21:22:00,56.2,37.8,30.25,ENE,70,0.0,0.0,50,0.00,,,0.00,VWS V14.01,2013-04-18 01:22:00,
2013-04-17 21:27:00,55.8,37.5,30.25,ENE,70,0.0,0.0,50,0.00,,,0.00,VWS V14.01,2013-04-18 01:27:00,
2013-04-17 21:30:00,55.6,37.3,30.25,ENE,70,0.0,0.0,50,0.00,,,0.00,VWS V14.01,2013-04-18 01:30:00,
2013-04-17 21:32:00,55.5,36.2,30.25,ENE,70,0.0,0.0,48,0.00,,,0.00,VWS V14.01,2013-04-18 01:32:00,
2013-04-17 21:37:00,55.5,35.6,30.25,ENE,70,1.0,2.0,47,0.00,,,0.00,VWS V14.01,2013-04-18 01:37:00,
2013-04-17 21:42:00,55.6,36.8,30.25,ENE,70,0.0,2.0,49,0.00,,,0.00,VWS V14.01,2013-04-18 01:42:00,
2013-04-17 21:45:00,55.6,35.7,30.25,ENE,70,0.0,2.0,47,0.00,,,0.00,VWS V14.01,2013-04-18 01:45:00,
2013-04-17 21:47:00,55.6,34.6,30.25,ENE,70,0.0,2.0,45,0.00,,,0.00,VWS V14.01,2013-04-18 01:47:00,
2013-04-17 21:52:00,55.8,34.2,30.25,ENE,70,0.0,2.0,44,0.00,,,0.00,VWS V14.01,2013-04-18 01:52:00,
2013-04-17 21:57:00,55.9,39.5,30.25,ENE,70,0.0,2.0,54,0.00,,,0.00,VWS V14.01,2013-04-18 01:57:00,
2013-04-17 22:00:00,55.9,36.0,30.25,ENE,70,0.0,2.0,47,0.00,,,0.00,VWS V14.01,2013-04-18 02:00:00,
2013-04-17 22:02:00,55.9,36.5,30.25,ENE,70,0.0,0.0,48,0.00,,,0.00,VWS V14.01,2013-04-18 02:02:00,
2013-04-17 22:07:00,55.8,40.4,30.25,ENE,70,0.0,1.0,56,0.00,,,0.00,VWS V14.01,2013-04-18 02:07:00,
2013-04-17 22:12:00,55.5,38.2,30.25,ENE,70,0.0,1.0,52,0.00,,,0.00,VWS V14.01,2013-04-18 02:12:00,
2013-04-17 22:15:00,55.2,37.4,30.25,ENE,70,0.0,1.0,51,0.00,,,0.00,VWS V14.01,2013-04-18 02:15:00,
2013-04-17 22:17:00,55.2,38.9,30.25,ENE,70,0.0,0.0,54,0.00,,,0.00,VWS V14.01,2013-04-18 02:17:00,
2013-04-17 22:22:00,54.7,39.8,30.25,ENE,70,5.0,5.0,57,0.00,,,0.00,VWS V14.01,2013-04-18 02:22:00,
2013-04-17 22:27:00,54.0,39.1,30.25,ENE,70,0.0,5.0,57,0.00,,,0.00,VWS V14.01,2013-04-18 02:27:00,
2013-04-17 22:30:00,53.7,38.8,30.25,ENE,70,0.0,5.0,57,0.00,,,0.00,VWS V14.01,2013-04-18 02:30:00,
2013-04-17 22:32:00,53.7,39.3,30.25,ENE,70,0.0,0.0,58,0.00,,,0.00,VWS V14.01,2013-04-18 02:32:00,
2013-04-17 22:37:00,53.4,39.5,30.25,ENE,70,0.0,1.0,59,0.00,,,0.00,VWS V14.01,2013-04-18 02:37:00,
2013-04-17 22:42:00,53.1,37.4,30.25,ENE,70,0.0,1.0,55,0.00,,,0.00,VWS V14.01,2013-04-18 02:42:00,
2013-04-17 22:45:00,53.0,38.2,30.26,ENE,70,0.0,1.0,57,0.00,,,0.00,VWS V14.01,2013-04-18 02:45:00,
2013-04-17 22:47:00,53.0,39.5,30.26,ENE,70,2.0,4.0,60,0.00,,,0.00,VWS V14.01,2013-04-18 02:47:00,
2013-04-17 22:52:00,52.8,37.5,30.26,ENE,70,0.0,4.0,56,0.00,,,0.00,VWS V14.01,2013-04-18 02:52:00,
2013-04-17 22:57:00,52.7,37.9,30.26,ENE,70,0.0,4.0,57,0.00,,,0.00,VWS V14.01,2013-04-18 02:57:00,
2013-04-17 23:00:00,52.7,39.2,30.27,ENE,70,0.0,4.0,60,0.00,,,0.00,VWS V14.01,2013-04-18 03:00:00,
2013-04-17 23:02:00,52.5,39.0,30.27,ENE,70,0.0,0.0,60,0.00,,,0.00,VWS V14.01,2013-04-18 03:02:00,
2013-04-17 23:07:00,52.4,38.5,30.27,ENE,70,0.0,0.0,59,0.00,,,0.00,VWS V14.01,2013-04-18 03:07:00,
2013-04-17 23:12:00,52.2,38.3,30.27,ENE,70,0.0,0.0,59,0.00,,,0.00,VWS V14.01,2013-04-18 03:12:00,
2013-04-17 23:15:00,52.2,38.3,30.27,ENE,70,0.0,0.0,59,0.00,,,0.00,VWS V14.01,2013-04-18 03:15:00,
2013-04-17 23:17:00,52.2,38.8,30.27,ENE,70,0.0,0.0,60,0.00,,,0.00,VWS V14.01,2013-04-18 03:17:00,
2013-04-17 23:21:00,52.1,39.1,30.27,ENE,70,0.0,0.0,61,0.00,,,0.00,VWS V14.01,2013-04-18 03:21:00,
2013-04-17 23:26:00,51.9,40.1,30.27,ENE,70,0.0,1.0,64,0.00,,,0.00,VWS V14.01,2013-04-18 03:26:00,
2013-04-17 23:30:00,51.6,39.0,30.27,ENE,70,0.0,1.0,62,0.00,,,0.00,VWS V14.01,2013-04-18 03:30:00,
2013-04-17 23:32:00,51.6,39.0,30.27,ENE,70,0.0,0.0,62,0.00,,,0.00,VWS V14.01,2013-04-18 03:32:00,
2013-04-17 23:36:00,51.3,38.7,30.27,ENE,70,0.0,0.0,62,0.00,,,0.00,VWS V14.01,2013-04-18 03:36:00,
2013-04-17 23:41:00,51.2,38.6,30.27,ENE,70,0.0,0.0,62,0.00,,,0.00,VWS V14.01,2013-04-18 03:41:00,
2013-04-17 23:45:00,51.0,38.5,30.27,ENE,70,0.0,0.0,62,0.00,,,0.00,VWS V14.01,2013-04-18 03:45:00,
2013-04-17 23:47:00,51.0,38.5,30.27,ENE,70,0.0,0.0,62,0.00,,,0.00,VWS V14.01,2013-04-18 03:47:00,
2013-04-17 23:52:00,50.9,38.4,30.27,ENE,70,0.0,0.0,62,0.00,,,0.00,VWS V14.01,2013-04-18 03:52:00,
2013-04-17 23:57:00,50.7,39.8,30.27,ENE,70,0.0,0.0,66,0.00,,,0.00,VWS V14.01,2013-04-18 03:57:00,